Share

Imperial, NE

11:24 PM MDT on April 23, 2014 (GMT -0600)
Imperial Municipal (KIML) Elev 3274 ft | 40.51 °N, 101.62 °W | Change Station

Current weather conditions updated 31 minutes ago

Partly Cloudy
Partly Cloudy
54 °F
Feels Like 54 °F
N
26
Wind Variable Wind from NW
Gusts 41 mph
Sunrise 5:56 AM
Sunset 7:34 PM
Moon Waning Crescent

Tomorrow is forecast to be Much Cooler than today.

Pressure 29.75 in
Visibility 10.0 miles
Clouds Few 8500 ft
Dew Point 28 °F
Humidity 37%
Rainfall 0.00 in
Snow Depth Not available.
UV 0 out of 16
Pollen 10.90 out of 12
Air Quality Not available.
Flu Activity Sporadic
METAR KIML 240453Z AUTO 32023G36KT 10SM FEW085 12/M02 A2980 RMK AO2 PK WND 33036/0451 SLP074 T01221022 $

More Conditions Fewer Conditions

Pressure 29.75 in
Visibility 10.0 miles
Clouds Few 8500 ft
Dew Point 28 °F
Humidity 37%
Rainfall 0.00 in
Snow Depth Not available.
UV 0 out of 16
Pollen 10.90 out of 12
Air Quality Not available.
Flu Activity Sporadic
METAR KIML 240453Z AUTO 32023G36KT 10SM FEW085 12/M02 A2980 RMK AO2 PK WND 33036/0451 SLP074 T01221022 $

More Conditions Fewer Conditions

10-Day Weather Forecast

Almanac

Astronomy

Apr. 23, 2014 Rise Set
Actual Time 5:56 AM MDT 7:34 PM MDT
Civil Twilight 5:27 AM MDT 8:03 PM MDT
Nautical Twilight 4:52 AM MDT 8:38 PM MDT
Astronomical Twilight 4:15 AM MDT 9:15 PM MDT
Moon 2:30 AM MDT (4/23) 1:43 PM MDT (4/23)
Length of Visible Light 14h 35m
Length of Day
13h 37m
Tomorrow will be 2m 27s longer.
Waning Crescent, 29% of the Moon is Illuminated
Apr 24
Waning Crescent
Apr 29
New
May 6
First Quarter
May 14
Full
May 21
Last Quarter

Yesterday's Extremes

State Highs State Lows

Community

  • Stacked
    Stacked
  • clouds approaching Red Sox Nation
    clouds approaching Red Sox Nation
  • Balance
    Balance
  • Nestled In
    Nestled In
  • Stunning Sunrise
    Stunning Sunrise

WunderPhotos

Upload Photos

1,704,569 photos uploaded!

WunderBlogs® & News

Nearby

Snow Depth

Station Depth Elevation
No new snow has been reported.

Coastal Water Temperatures

Place Temperature
No Stations Reporting

Earthquake Activity

City Distance Mag. Time & Date
No recent earthquake activity has been reported nearby.
Minimum magnitude displayed is 2.5.

Nearby Weather Stations

Station Location Temp. Dew Point Humidity Wind Precip. Elev Updated Type
MesoWest JOHNSON FARM , Champion, NE 51 °F 34 °F 51% NNW  at  23 mph 0.00 in / hr 3340 ft 10:00 PM MDT MADIS

Show More Stations Show Fewer Stations

What do you think?

We're not finished. Please let us know what you like, what you don't like, and what you are still missing.